createdAt,value
2022-09-16T00:01:56.472Z,79.74
2022-09-16T00:04:25.371Z,79.56
2022-09-16T00:06:53.968Z,79.97
2022-09-16T00:09:23.925Z,79.64
2022-09-16T00:11:52.967Z,78.91
2022-09-16T00:14:21.542Z,78.91
2022-09-16T00:16:50.282Z,78.85
2022-09-16T00:19:19.130Z,77.23
2022-09-16T00:21:52.968Z,77.06
2022-09-16T00:24:23.177Z,77.08
2022-09-16T00:26:51.776Z,76.76
2022-09-16T00:29:20.340Z,75.64
2022-09-16T00:31:49.163Z,76.50
2022-09-16T00:34:17.799Z,76.78
2022-09-16T00:36:46.395Z,76.30
2022-09-16T00:39:15.258Z,76.33
2022-09-16T00:41:45.683Z,75.93
2022-09-16T00:44:47.826Z,75.39
2022-09-16T00:47:20.167Z,77.25
2022-09-16T00:49:49.733Z,75.86
2022-09-16T00:52:19.735Z,78.89
2022-09-16T00:54:48.595Z,77.89
2022-09-16T00:57:18.616Z,77.71
2022-09-16T00:59:49.952Z,78.58
2022-09-16T01:02:20.745Z,78.29
2022-09-16T01:04:52.849Z,77.77
2022-09-16T01:07:28.845Z,77.62
2022-09-16T01:09:57.798Z,78.63
2022-09-16T01:12:29.143Z,79.71
2022-09-16T01:14:58.529Z,79.36
2022-09-16T01:17:41.898Z,80.54
2022-09-16T01:20:34.282Z,80.13
2022-09-16T01:23:18.549Z,81.00
2022-09-16T01:25:58.975Z,81.62
2022-09-16T01:28:41.134Z,79.66
2022-09-16T01:31:15.849Z,81.24
2022-09-16T01:33:52.438Z,79.95
2022-09-16T01:36:32.562Z,78.90
2022-09-16T01:39:09.151Z,80.02
2022-09-16T01:41:47.771Z,81.07
2022-09-16T01:44:22.704Z,81.11
2022-09-16T01:46:59.554Z,79.39
2022-09-16T01:49:38.224Z,78.81
2022-09-16T01:52:12.843Z,79.91
2022-09-16T01:54:44.413Z,80.85
2022-09-16T01:57:16.486Z,80.19
2022-09-16T01:59:48.748Z,79.72
2022-09-16T02:02:22.068Z,79.75
2022-09-16T02:04:52.885Z,79.30
2022-09-16T02:07:23.986Z,77.62
2022-09-16T02:09:57.913Z,78.55
2022-09-16T02:12:32.462Z,77.89
2022-09-16T02:15:04.826Z,78.47
2022-09-16T02:17:38.472Z,77.09
2022-09-16T02:20:11.166Z,76.87
2022-09-16T02:22:43.432Z,75.53
2022-09-16T02:25:14.502Z,75.58
2022-09-16T02:27:44.557Z,75.59
2022-09-16T02:30:17.647Z,75.74
2022-09-16T02:32:49.663Z,74.93
2022-09-16T02:35:20.159Z,76.55
2022-09-16T02:37:52.140Z,75.84
2022-09-16T02:40:24.986Z,76.24
2022-09-16T02:42:54.076Z,74.65
2022-09-16T02:45:26.494Z,75.99
2022-09-16T02:48:03.279Z,75.35
2022-09-16T02:50:39.930Z,74.73
2022-09-16T02:53:14.415Z,75.54
2022-09-16T02:55:50.093Z,75.26
2022-09-16T02:58:18.704Z,73.83
2022-09-16T03:00:50.360Z,75.06
2022-09-16T03:03:20.414Z,75.10
2022-09-16T03:06:17.746Z,75.02
2022-09-16T03:08:47.055Z,74.96
2022-09-16T03:11:30.134Z,73.91
2022-09-16T03:14:09.072Z,73.94
2022-09-16T03:16:46.222Z,72.56
2022-09-16T03:19:22.923Z,73.13
2022-09-16T03:21:57.064Z,74.01
2022-09-16T03:24:31.045Z,73.83
2022-09-16T03:27:03.815Z,73.78
2022-09-16T03:29:36.347Z,72.99
2022-09-16T03:32:11.558Z,73.56
2022-09-16T03:34:44.959Z,72.01
2022-09-16T03:37:16.898Z,72.60
2022-09-16T03:39:50.200Z,73.24
2022-09-16T03:42:19.044Z,72.77
2022-09-16T03:44:47.708Z,72.85
2022-09-16T03:47:16.872Z,72.56
2022-09-16T03:49:47.071Z,72.90
2022-09-16T03:52:17.371Z,72.41
2022-09-16T03:54:46.269Z,73.22
2022-09-16T03:57:14.874Z,72.76
2022-09-16T03:59:43.468Z,71.27
2022-09-16T04:02:12.326Z,72.49
2022-09-16T04:04:41.231Z,71.20
2022-09-16T04:07:11.118Z,70.90
2022-09-16T04:09:39.705Z,72.24
2022-09-16T04:12:08.918Z,72.26
2022-09-16T04:14:37.548Z,72.30
2022-09-16T04:17:06.329Z,72.61
2022-09-16T04:19:35.448Z,72.26
2022-09-16T04:22:04.239Z,72.11
2022-09-16T04:24:34.179Z,72.63
2022-09-16T04:27:03.126Z,71.67
2022-09-16T04:29:34.159Z,72.20
2022-09-16T04:32:03.415Z,73.33
2022-09-16T04:34:32.353Z,72.04
2022-09-16T04:37:00.990Z,71.58
2022-09-16T04:39:29.905Z,71.80
2022-09-16T04:42:01.104Z,72.32
2022-09-16T04:44:30.446Z,71.21
2022-09-16T04:46:59.102Z,70.21
2022-09-16T04:49:27.765Z,70.64
2022-09-16T04:51:56.729Z,71.74
2022-09-16T04:54:25.424Z,71.41
2022-09-16T04:56:54.033Z,70.29
2022-09-16T04:59:24.353Z,69.03
2022-09-16T05:01:53.145Z,70.52
2022-09-16T05:04:21.879Z,71.22
2022-09-16T05:07:09.249Z,71.87
2022-09-16T05:09:37.901Z,69.93
2022-09-16T05:12:08.453Z,69.97
2022-09-16T05:14:38.412Z,70.52
2022-09-16T05:17:07.472Z,70.79
2022-09-16T05:19:38.424Z,72.03
2022-09-16T05:22:07.394Z,71.48
2022-09-16T05:24:37.003Z,71.99
2022-09-16T05:27:05.610Z,72.02
2022-09-16T05:29:34.527Z,71.89
2022-09-16T05:32:04.675Z,71.53
2022-09-16T05:34:33.316Z,71.59
2022-09-16T05:37:02.265Z,70.58
2022-09-16T05:39:30.960Z,71.59
2022-09-16T05:42:01.072Z,70.88
2022-09-16T05:44:30.354Z,72.17
2022-09-16T05:46:59.047Z,69.95
2022-09-16T05:49:29.036Z,68.51
2022-09-16T05:51:57.921Z,69.68
2022-09-16T05:54:26.550Z,68.93
2022-09-16T05:56:55.116Z,70.16
2022-09-16T05:59:24.620Z,69.01
2022-09-16T06:01:53.428Z,69.54
2022-09-16T06:04:26.592Z,71.14
2022-09-16T06:06:56.555Z,69.35
2022-09-16T06:09:26.288Z,70.26
2022-09-16T06:12:01.435Z,70.53
2022-09-16T06:14:31.619Z,70.85
2022-09-16T06:17:00.522Z,71.71
2022-09-16T06:19:47.481Z,71.78
2022-09-16T06:22:17.692Z,71.09
2022-09-16T06:24:46.318Z,70.92
2022-09-16T06:27:14.928Z,71.41
2022-09-16T06:29:43.814Z,68.98
2022-09-16T06:32:12.396Z,66.33
2022-09-16T06:34:41.003Z,66.82
2022-09-16T06:37:12.716Z,66.59
2022-09-16T06:39:43.568Z,67.81
2022-09-16T06:42:12.293Z,69.55
2022-09-16T06:44:41.643Z,67.61
2022-09-16T06:47:10.397Z,69.10
2022-09-16T06:49:39.304Z,69.52
2022-09-16T06:52:09.512Z,70.41
2022-09-16T06:54:38.414Z,69.09
2022-09-16T06:57:12.353Z,68.35
2022-09-16T06:59:41.486Z,67.38
2022-09-16T07:02:14.265Z,68.08
2022-09-16T07:04:43.178Z,66.13
2022-09-16T07:07:12.201Z,67.31
2022-09-16T07:09:41.233Z,68.10
2022-09-16T07:12:11.650Z,67.22
2022-09-16T07:14:41.484Z,65.62
2022-09-16T07:17:10.422Z,65.18
2022-09-16T07:19:39.101Z,67.25
2022-09-16T07:22:07.941Z,66.87
2022-09-16T07:24:36.560Z,67.46
2022-09-16T07:27:05.541Z,65.28
2022-09-16T07:29:35.767Z,66.58
2022-09-16T07:32:04.612Z,64.94
2022-09-16T07:34:33.205Z,66.46
2022-09-16T07:37:02.089Z,66.14
2022-09-16T07:39:30.695Z,66.58
2022-09-16T07:42:03.878Z,65.98
2022-09-16T07:44:36.181Z,67.68
2022-09-16T07:47:04.918Z,66.10
2022-09-16T07:49:33.848Z,65.60
2022-09-16T07:52:02.884Z,65.68
2022-09-16T07:54:32.016Z,67.33
2022-09-16T07:57:01.312Z,68.53
2022-09-16T07:59:30.189Z,64.76
2022-09-16T08:02:00.358Z,65.45
2022-09-16T08:04:29.302Z,65.45
2022-09-16T08:06:57.896Z,65.93
2022-09-16T08:09:38.921Z,66.53
2022-09-16T08:12:11.113Z,66.44
2022-09-16T08:14:39.857Z,66.36
2022-09-16T08:17:09.863Z,68.24
2022-09-16T08:19:40.266Z,67.88
2022-09-16T08:22:09.075Z,67.42
2022-09-16T08:24:38.174Z,66.25
2022-09-16T08:27:06.968Z,66.94
2022-09-16T08:29:35.735Z,66.58
2022-09-16T08:32:04.707Z,64.76
2022-09-16T08:34:34.795Z,64.93
2022-09-16T08:37:06.170Z,64.75
2022-09-16T08:39:35.084Z,65.29
2022-09-16T08:42:13.564Z,62.81
2022-09-16T08:44:50.642Z,62.21
2022-09-16T08:47:28.589Z,61.36
2022-09-16T08:50:01.295Z,62.66
2022-09-16T08:52:32.724Z,63.79
2022-09-16T08:55:04.971Z,62.92
2022-09-16T08:57:36.326Z,65.04
2022-09-16T09:00:09.624Z,64.83
2022-09-16T09:05:19.463Z,63.22
2022-09-16T09:08:02.421Z,63.24
2022-09-16T09:10:39.433Z,65.26
2022-09-16T09:13:16.710Z,64.69
2022-09-16T09:15:51.704Z,66.12
2022-09-16T09:18:29.600Z,65.51
2022-09-16T09:21:10.293Z,62.33
2022-09-16T09:23:53.067Z,62.16
2022-09-16T09:26:23.633Z,62.86
2022-09-16T09:29:27.910Z,63.04
2022-09-16T09:32:01.239Z,63.60
2022-09-16T09:34:41.615Z,63.24
2022-09-16T09:37:24.823Z,60.40
2022-09-16T09:40:02.081Z,61.51
2022-09-16T09:42:34.571Z,59.36
2022-09-16T09:45:06.276Z,58.69
2022-09-16T09:47:38.320Z,59.83
2022-09-16T09:50:17.484Z,60.72
2022-09-16T09:52:55.643Z,60.86
2022-09-16T09:55:25.890Z,60.90
2022-09-16T09:58:06.376Z,57.15
2022-09-16T10:00:35.106Z,57.62
2022-09-16T10:03:08.020Z,59.01
2022-09-16T10:05:36.693Z,57.26
2022-09-16T10:08:16.450Z,54.86
2022-09-16T10:10:50.427Z,56.04
2022-09-16T10:13:20.045Z,56.48
2022-09-16T10:15:53.343Z,53.84
2022-09-16T10:18:30.466Z,54.58
2022-09-16T10:21:03.873Z,57.94
2022-09-16T10:23:35.439Z,55.89
2022-09-16T10:26:18.233Z,55.59
2022-09-16T10:29:01.765Z,57.04
2022-09-16T10:31:35.642Z,53.87
2022-09-16T10:34:06.982Z,51.89
2022-09-16T10:36:36.127Z,55.37
2022-09-16T10:39:06.506Z,53.28
2022-09-16T10:41:36.709Z,52.91
2022-09-16T10:44:16.600Z,54.29
2022-09-16T10:46:54.178Z,54.85
2022-09-16T10:49:28.878Z,55.33
2022-09-16T10:52:08.638Z,54.91
2022-09-16T10:54:38.967Z,53.46
2022-09-16T10:57:22.784Z,52.93
2022-09-16T11:00:06.559Z,53.88
2022-09-16T11:03:01.182Z,55.41
2022-09-16T11:05:34.300Z,56.41
2022-09-16T11:08:15.675Z,56.42
2022-09-16T11:10:50.414Z,54.95
2022-09-16T11:13:33.859Z,52.70
2022-09-16T11:16:38.385Z,52.35
2022-09-16T11:19:12.045Z,55.12
2022-09-16T11:21:47.607Z,52.68
2022-09-16T11:24:44.871Z,51.72
2022-09-16T11:27:22.780Z,50.76
2022-09-16T11:29:59.340Z,53.44
2022-09-16T11:32:35.442Z,51.43
2022-09-16T11:35:20.905Z,52.39
2022-09-16T11:38:00.903Z,51.69
2022-09-16T11:40:35.201Z,50.18
2022-09-16T11:43:22.261Z,49.96
2022-09-16T11:45:56.403Z,49.27
2022-09-16T11:48:38.134Z,47.50
2022-09-16T11:51:12.843Z,49.26
2022-09-16T11:54:01.892Z,48.19
2022-09-16T11:56:37.710Z,51.13
2022-09-16T11:59:14.291Z,48.73
2022-09-16T12:01:45.400Z,48.88
2022-09-16T12:04:19.875Z,49.02
2022-09-16T12:06:54.750Z,50.04
2022-09-16T12:09:29.363Z,50.19
2022-09-16T12:12:04.857Z,52.65
2022-09-16T12:14:38.841Z,50.96
2022-09-16T12:17:12.579Z,49.89
2022-09-16T12:19:45.034Z,50.30
2022-09-16T12:22:19.002Z,48.78
2022-09-16T12:24:50.846Z,46.03
2022-09-16T12:27:29.126Z,44.50
2022-09-16T12:30:03.216Z,47.78
2022-09-16T12:32:37.725Z,50.95
2022-09-16T12:35:14.097Z,48.64
2022-09-16T12:37:47.912Z,48.24
2022-09-16T12:40:19.626Z,50.19
2022-09-16T12:43:28.958Z,46.70
2022-09-16T12:46:12.627Z,47.59
2022-09-16T12:49:04.433Z,49.49
2022-09-16T12:51:59.917Z,49.75
2022-09-16T12:55:11.349Z,50.37
2022-09-16T12:57:50.760Z,50.02
2022-09-16T13:00:22.108Z,47.75
2022-09-16T13:02:54.236Z,49.04
2022-09-16T13:05:28.219Z,48.77
2022-09-16T13:08:04.376Z,49.90
2022-09-16T13:10:54.695Z,48.53
2022-09-16T13:13:31.280Z,49.37
2022-09-16T13:16:02.508Z,47.14
2022-09-16T13:18:44.760Z,48.04
2022-09-16T13:21:22.877Z,48.33
2022-09-16T13:23:58.542Z,47.45
2022-09-16T13:26:27.207Z,50.12
2022-09-16T13:28:58.988Z,48.45
2022-09-16T13:31:34.129Z,49.69
2022-09-16T13:34:15.822Z,49.88
2022-09-16T13:36:44.262Z,50.09
2022-09-16T13:39:15.043Z,48.10
2022-09-16T13:41:45.443Z,48.93
2022-09-16T13:44:43.053Z,48.76
2022-09-16T13:47:31.048Z,51.98
2022-09-16T13:50:06.344Z,51.39
2022-09-16T13:52:36.403Z,51.78
2022-09-16T13:55:11.086Z,52.16
2022-09-16T13:58:00.001Z,51.25
2022-09-16T14:00:35.381Z,53.44
2022-09-16T14:03:30.019Z,52.14
2022-09-16T14:06:20.390Z,53.15
2022-09-16T14:08:57.906Z,50.52
2022-09-16T14:11:34.775Z,51.04
2022-09-16T14:14:06.769Z,51.91
2022-09-16T14:16:36.430Z,50.57
2022-09-16T14:19:07.849Z,51.43
2022-09-16T14:21:38.907Z,51.67
2022-09-16T14:24:17.945Z,52.74
2022-09-16T14:26:53.581Z,53.17
2022-09-16T14:29:23.793Z,52.85
2022-09-16T14:31:54.146Z,52.98
2022-09-16T14:34:27.353Z,54.18
2022-09-16T14:36:58.061Z,53.68
2022-09-16T14:39:28.101Z,53.11
2022-09-16T14:41:59.105Z,53.97
2022-09-16T14:44:35.190Z,54.08
2022-09-16T14:47:09.456Z,54.21
2022-09-16T14:49:41.933Z,54.00
2022-09-16T14:52:20.277Z,53.86
2022-09-16T14:54:50.654Z,54.10
2022-09-16T14:57:22.793Z,53.63
2022-09-16T14:59:55.563Z,54.23
2022-09-16T15:02:26.577Z,53.72
2022-09-16T15:04:58.977Z,52.74
2022-09-16T15:07:30.957Z,53.67
2022-09-16T15:10:02.871Z,54.67
2022-09-16T15:12:36.809Z,54.50
2022-09-16T15:15:06.964Z,55.33
2022-09-16T15:17:35.620Z,54.87
2022-09-16T15:20:04.398Z,53.87
2022-09-16T15:22:34.686Z,55.63
2022-09-16T15:25:04.045Z,53.51
2022-09-16T15:27:32.965Z,54.62
2022-09-16T15:30:05.622Z,55.03
2022-09-16T15:32:45.081Z,55.41
2022-09-16T15:35:25.171Z,55.90
2022-09-16T15:37:56.092Z,55.60
2022-09-16T15:40:35.801Z,55.59
2022-09-16T15:43:16.876Z,54.48
2022-09-16T15:45:47.458Z,53.97
2022-09-16T15:48:18.742Z,54.57
2022-09-16T15:50:50.013Z,55.12
2022-09-16T15:53:28.040Z,55.75
2022-09-16T15:56:00.111Z,57.02
2022-09-16T15:58:39.567Z,56.48
2022-09-16T16:01:13.534Z,57.18
2022-09-16T16:03:57.133Z,56.90
2022-09-16T16:06:47.779Z,56.71
2022-09-16T16:09:40.044Z,57.82
2022-09-16T16:12:10.776Z,57.91
2022-09-16T16:14:40.993Z,58.43
2022-09-16T16:17:13.628Z,58.23
2022-09-16T16:19:43.890Z,57.42
2022-09-16T16:22:12.835Z,57.36
2022-09-16T16:24:43.168Z,58.04
2022-09-16T16:27:12.121Z,57.86
2022-09-16T16:29:40.768Z,57.79
2022-09-16T16:32:10.781Z,57.31
2022-09-16T16:34:41.248Z,57.99
2022-09-16T16:37:28.068Z,58.92
2022-09-16T16:40:02.649Z,60.09
2022-09-16T16:42:31.637Z,60.41
2022-09-16T16:45:00.260Z,59.75
2022-09-16T16:47:30.166Z,60.60
2022-09-16T16:49:59.819Z,60.45
2022-09-16T16:52:28.724Z,58.46
2022-09-16T16:54:57.644Z,59.04
2022-09-16T16:57:27.794Z,59.68
2022-09-16T16:59:56.503Z,58.08
2022-09-16T17:02:26.083Z,58.35
2022-09-16T17:04:54.783Z,58.92
2022-09-16T17:07:27.721Z,57.66
2022-09-16T17:09:58.642Z,58.10
2022-09-16T17:12:28.751Z,59.22
2022-09-16T17:14:57.658Z,58.92
2022-09-16T17:17:31.208Z,59.16
2022-09-16T17:20:00.734Z,60.25
2022-09-16T17:22:29.349Z,60.45
2022-09-16T17:24:57.989Z,60.01
2022-09-16T17:27:29.718Z,60.21
2022-09-16T17:30:01.071Z,60.42
2022-09-16T17:32:30.002Z,59.32
2022-09-16T17:34:58.636Z,59.27
2022-09-16T17:37:27.255Z,59.15
2022-09-16T17:39:56.807Z,59.33
2022-09-16T17:42:25.580Z,59.32
2022-09-16T17:44:55.578Z,59.63
2022-09-16T17:47:24.570Z,60.11
2022-09-16T17:49:53.737Z,59.08
2022-09-16T17:52:22.344Z,59.05
2022-09-16T17:54:51.294Z,56.60
2022-09-16T17:57:20.212Z,56.59
2022-09-16T17:59:48.825Z,57.42
2022-09-16T18:02:21.772Z,57.54
2022-09-16T18:04:50.872Z,58.57
2022-09-16T18:07:19.697Z,58.67
2022-09-16T18:09:48.605Z,59.19
2022-09-16T18:12:17.606Z,59.13
2022-09-16T18:14:46.238Z,59.63
2022-09-16T18:17:14.928Z,60.24
2022-09-16T18:19:45.240Z,59.78
2022-09-16T18:22:13.824Z,59.89
2022-09-16T18:24:42.848Z,60.53
2022-09-16T18:27:12.093Z,60.29
2022-09-16T18:29:41.351Z,60.03
2022-09-16T18:32:10.019Z,60.55
2022-09-16T18:34:39.181Z,61.14
2022-09-16T18:37:09.489Z,61.62
2022-09-16T18:39:38.188Z,61.92
2022-09-16T18:42:07.565Z,61.94
2022-09-16T18:44:36.267Z,62.00
2022-09-16T18:47:04.940Z,62.13
2022-09-16T18:49:33.829Z,62.53
2022-09-16T18:52:02.960Z,62.14
2022-09-16T18:54:33.254Z,61.92
2022-09-16T18:57:02.587Z,62.08
2022-09-16T18:59:32.293Z,61.00
2022-09-16T19:02:02.827Z,61.02
2022-09-16T19:04:33.553Z,58.68
2022-09-16T19:07:07.647Z,59.37
2022-09-16T19:09:39.816Z,60.33
2022-09-16T19:12:10.897Z,60.88
2022-09-16T19:14:40.999Z,60.94
2022-09-16T19:17:10.241Z,61.06
2022-09-16T19:19:39.225Z,61.23
2022-09-16T19:22:07.878Z,61.80
2022-09-16T19:24:38.425Z,61.42
2022-09-16T19:27:07.341Z,61.77
2022-09-16T19:29:35.939Z,60.82
2022-09-16T19:32:04.679Z,58.93
2022-09-16T19:34:33.655Z,58.50
2022-09-16T19:37:02.337Z,59.37
2022-09-16T19:39:31.783Z,58.81
2022-09-16T19:42:03.667Z,58.73
2022-09-16T19:44:32.493Z,59.13
2022-09-16T19:47:02.119Z,59.04
2022-09-16T19:49:30.846Z,58.63
2022-09-16T19:51:59.525Z,59.87
2022-09-16T19:54:28.502Z,60.27
2022-09-16T19:56:57.127Z,60.23
2022-09-16T19:59:27.138Z,60.50
2022-09-16T20:01:57.297Z,60.43
2022-09-16T20:04:26.483Z,60.58
2022-09-16T20:06:55.103Z,62.35
2022-09-16T20:09:23.791Z,62.39
2022-09-16T20:11:52.727Z,62.22
2022-09-16T20:14:22.298Z,62.98
2022-09-16T20:16:52.622Z,63.47
2022-09-16T20:19:22.502Z,63.32
2022-09-16T20:21:51.213Z,62.60
2022-09-16T20:24:21.597Z,63.09
2022-09-16T20:26:51.431Z,62.67
2022-09-16T20:29:20.858Z,63.62
2022-09-16T20:31:50.728Z,63.65
2022-09-16T20:34:23.019Z,63.53
2022-09-16T20:36:51.996Z,63.58
2022-09-16T20:39:23.913Z,64.01
2022-09-16T20:41:52.878Z,64.04
2022-09-16T20:44:21.801Z,64.00
2022-09-16T20:46:50.481Z,63.92
2022-09-16T20:49:23.083Z,64.11
2022-09-16T20:51:52.480Z,65.05
2022-09-16T20:54:21.093Z,65.08
2022-09-16T20:56:49.967Z,64.52
2022-09-16T20:59:20.173Z,64.91
2022-09-16T21:01:50.053Z,65.62
2022-09-16T21:04:21.567Z,67.19
2022-09-16T21:06:49.982Z,67.05
2022-09-16T21:09:19.620Z,66.22
2022-09-16T21:11:50.168Z,67.29
2022-09-16T21:14:21.596Z,67.34
2022-09-16T21:16:51.635Z,67.05
2022-09-16T21:19:21.997Z,67.45
2022-09-16T21:21:51.098Z,68.14
2022-09-16T21:24:20.019Z,69.46
2022-09-16T21:26:52.277Z,70.94
2022-09-16T21:29:21.516Z,71.17
2022-09-16T21:31:50.524Z,71.15
2022-09-16T21:34:21.936Z,71.55
2022-09-16T21:36:51.472Z,72.80
2022-09-16T21:39:21.873Z,72.34
2022-09-16T21:41:50.482Z,73.64
2022-09-16T21:44:19.964Z,74.62
2022-09-16T21:46:49.810Z,74.78
2022-09-16T21:49:24.400Z,74.67
2022-09-16T21:51:54.385Z,75.69
2022-09-16T21:54:23.765Z,76.00
2022-09-16T21:56:52.794Z,75.89
2022-09-16T21:59:21.942Z,75.28
2022-09-16T22:01:51.619Z,75.10
2022-09-16T22:04:23.214Z,75.05
2022-09-16T22:06:52.743Z,74.66
2022-09-16T22:09:21.602Z,74.88
2022-09-16T22:11:50.667Z,74.43
2022-09-16T22:14:19.704Z,73.15
2022-09-16T22:16:50.538Z,74.68
2022-09-16T22:19:21.487Z,73.91
2022-09-16T22:21:51.828Z,74.88
2022-09-16T22:24:21.632Z,74.95
2022-09-16T22:26:52.093Z,75.38
2022-09-16T22:29:20.812Z,75.83
2022-09-16T22:31:49.584Z,76.91
2022-09-16T22:34:18.713Z,76.95
2022-09-16T22:36:48.693Z,77.02
2022-09-16T22:39:18.337Z,77.87
2022-09-16T22:41:47.361Z,75.07
2022-09-16T22:44:16.141Z,76.20
2022-09-16T22:46:46.397Z,77.66
2022-09-16T22:49:16.069Z,77.25
2022-09-16T22:51:44.754Z,78.54
2022-09-16T22:54:15.919Z,77.49
2022-09-16T22:56:45.188Z,79.50
2022-09-16T22:59:18.214Z,78.40
2022-09-16T23:01:47.608Z,77.90
2022-09-16T23:04:16.557Z,77.40
2022-09-16T23:06:47.855Z,77.49
2022-09-16T23:09:17.864Z,77.98
2022-09-16T23:11:46.559Z,78.14
2022-09-16T23:14:24.702Z,77.08
2022-09-16T23:16:54.177Z,76.17
2022-09-16T23:19:23.188Z,76.01
2022-09-16T23:21:51.912Z,77.74
2022-09-16T23:24:22.857Z,75.60
2022-09-16T23:26:51.607Z,76.38
2022-09-16T23:29:20.094Z,75.85
2022-09-16T23:31:48.805Z,75.37
2022-09-16T23:34:19.605Z,75.09
2022-09-16T23:36:48.858Z,73.66
2022-09-16T23:39:18.424Z,74.57
2022-09-16T23:41:49.867Z,75.71
2022-09-16T23:44:19.195Z,75.85
2022-09-16T23:46:47.924Z,75.61
2022-09-16T23:49:20.283Z,74.91
2022-09-16T23:51:49.195Z,75.94
2022-09-16T23:54:17.872Z,74.63
2022-09-16T23:56:47.829Z,76.14
2022-09-16T23:59:16.712Z,76.45
